Gandhi — A8OK8 — position and weather

sailwx.info

Track history (hours):
 
Tides and Currents Weather Stations Pressure Air Temp Water Temp Dewpoint Dewpoint Depression Visibility Wind Speed Wind Dir Waves Ship Positions

Gandhi

Last reported at 2015-Mar-04 08:33 UTC. Time now 2015-Mar-04 08:37 UTC.
Position N 51°24' E 001°55'.

Length 180 m; draft 10.5 m.

Type: Ship. MMSI: 636013645.

Date/timePositionNaut miles runAvg speedWind from/ knotsBaromVisibWave heightAir tempDewpointWater temp
2015-Mar-04 08:33N 51°24' E 001°55'9 9.0
2015-Mar-04 07:32N 51°22' E 002°10'4445.1
2015-Mar-04 06:33N 51°25' E 003°21'2222.1
2015-Mar-04 05:34N 51°22' E 002°46'1211.8
2015-Mar-04 04:31N 51°24' E 003°05'1313.7
2015-Mar-04 03:33N 51°25' E 003°26'1010.2
2015-Mar-04 02:33N 51°25' E 003°42'9 9.3
2015-Mar-04 01:33N 51°24' E 003°57'7 6.6
2015-Mar-04 00:33N 51°22' E 004°07'6 6.3
2015-Mar-03 23:34N 51°21' E 004°17'0 0.1
2015-Mar-03 22:33N 51°21' E 004°17'2 1.9
2015-Mar-03 21:34N 51°19' E 004°19'3 2.8
2015-Mar-03 20:33N 51°16' E 004°21'0 0.0
2015-Mar-03 18:03N 51°16' E 004°21'0 0.0
2015-Mar-03 16:19N 51°16' E 004°21'0 0.0
2015-Mar-03 15:15N 51°16' E 004°21'0 0.0
2015-Mar-03 13:21N 51°16' E 004°21'0 0.0
2015-Mar-03 11:12N 51°16' E 004°21'0 0.0
2015-Mar-03 10:24N 51°16' E 004°21'0 0.0
2015-Mar-03 09:10N 51°16' E 004°21'0 0.0
2015-Mar-03 07:30N 51°16' E 004°21'0 0.0
2015-Mar-03 06:33N 51°16' E 004°21'0 0.0
2015-Mar-03 04:24N 51°16' E 004°21'0 0.0
2015-Mar-03 03:27N 51°16' E 004°21'0 0.0
2015-Mar-03 01:30N 51°16' E 004°21'0 0.0
2015-Mar-03 00:33N 51°16' E 004°21'0 0.0
2015-Mar-02 23:24N 51°16' E 004°21'0 0.0
2015-Mar-02 22:33N 51°16' E 004°21'0 0.0
2015-Mar-02 21:30N 51°16' E 004°21'0 0.0
2015-Mar-02 20:03N 51°16' E 004°21'0 0.0
2015-Mar-02 17:21N 51°16' E 004°21'0 0.0
2015-Mar-02 16:18N 51°16' E 004°21'0 0.0
2015-Mar-02 15:24N 51°16' E 004°21'0 0.0
2015-Mar-02 14:18N 51°16' E 004°21'0 0.0
2015-Mar-02 13:24N 51°16' E 004°21'0 0.0
2015-Mar-02 12:18N 51°16' E 004°21'0 0.0
2015-Mar-02 11:30N 51°16' E 004°21'0 0.0
2015-Mar-02 10:30N 51°16' E 004°21'0 0.0
2015-Mar-02 09:30N 51°16' E 004°21'0 0.0
2015-Mar-02 08:27N 51°16' E 004°21'0 0.0
2015-Mar-02 06:12N 51°16' E 004°21'0 0.0
2015-Mar-02 05:30N 51°16' E 004°21'0 0.0
2015-Mar-02 04:09N 51°16' E 004°21'0 0.0
2015-Mar-02 02:12N 51°16' E 004°21'0 0.0
2015-Mar-02 01:24N 51°16' E 004°21'0 0.0
2015-Mar-02 00:30N 51°16' E 004°21'0 0.0
2015-Mar-01 23:30N 51°16' E 004°21'0 0.0
2015-Mar-01 22:33N 51°16' E 004°21'0 0.0
2015-Mar-01 21:30N 51°16' E 004°21'0 0.0
2015-Mar-01 20:24N 51°16' E 004°21'0 0.0
2015-Mar-01 19:18N 51°16' E 004°21'0 0.0
2015-Mar-01 18:33N 51°16' E 004°21'0 0.0
2015-Mar-01 17:30N 51°16' E 004°21'0 0.0
2015-Mar-01 16:18N 51°16' E 004°21'0 0.0
2015-Mar-01 15:24N 51°16' E 004°21'0 0.0
2015-Mar-01 14:24N 51°16' E 004°21'0 0.0
2015-Mar-01 13:30N 51°16' E 004°21'0 0.0
2015-Mar-01 12:24N 51°16' E 004°21'0 0.0
2015-Mar-01 11:18N 51°16' E 004°21'0 0.0
2015-Mar-01 10:06N 51°16' E 004°21'0 0.0
2015-Mar-01 09:24N 51°16' E 004°21'0 0.0
2015-Mar-01 08:24N 51°16' E 004°21'0 0.0
2015-Mar-01 07:30N 51°16' E 004°21'0 0.0
2015-Mar-01 06:33N 51°16' E 004°21'2 2.1
2015-Mar-01 05:33N 51°18' E 004°19'3 2.8
2015-Mar-01 04:34N 51°21' E 004°17'2 2.2
2015-Mar-01 03:33N 51°21' E 004°14'8 7.8
2015-Mar-01 02:34N 51°24' E 004°02'8 7.9
2015-Mar-01 01:34N 51°21' E 003°51'10 9.8
2015-Mar-01 00:33N 51°26' E 003°38'8 7.9
2015-Feb-28 23:33N 51°25' E 003°25'12 9.8
2015-Feb-28 22:22N 51°24' E 003°07'911.4
2015-Feb-28 21:33N 51°22' E 002°52'9 9.3
2015-Feb-28 20:33N 51°25' E 002°38'1 0.6
2015-Feb-28 19:28N 51°25' E 002°38'0 0.0
2015-Feb-28 18:28N 51°25' E 002°38'0 0.1
2015-Feb-28 17:31N 51°25' E 002°37'0 0.0
2015-Feb-28 16:31N 51°25' E 002°38'0 0.0
2015-Feb-28 15:31N 51°25' E 002°38'0 0.0
2015-Feb-28 14:28N 51°25' E 002°38'0 0.0
2015-Feb-28 13:31N 51°25' E 002°38'0 0.0
2015-Feb-28 12:31N 51°25' E 002°38'0 0.0
2015-Feb-28 11:28N 51°25' E 002°38'0 0.0
2015-Feb-28 10:31N 51°25' E 002°38'0 0.0
2015-Feb-28 09:28N 51°25' E 002°38'0 0.0
2015-Feb-28 08:31N 51°25' E 002°38'0 0.0
2015-Feb-28 07:31N 51°25' E 002°38'0 0.0
2015-Feb-28 06:31N 51°25' E 002°38'0 0.0
2015-Feb-28 05:19N 51°25' E 002°38'0 0.1
2015-Feb-28 04:18N 51°25' E 002°37'0 0.0
2015-Feb-28 03:13N 51°25' E 002°37'0 0.0
2015-Feb-28 01:31N 51°25' E 002°38'0 0.0
2015-Feb-28 00:31N 51°25' E 002°38'0 0.0
2015-Feb-27 23:22N 51°25' E 002°38'0 0.0
2015-Feb-27 22:22N 51°25' E 002°38'0 0.0
2015-Feb-27 21:28N 51°25' E 002°38'0 0.0
2015-Feb-27 20:28N 51°25' E 002°38'0 0.0
2015-Feb-27 19:28N 51°25' E 002°38'0 0.1
2015-Feb-27 18:31N 51°25' E 002°38'0 0.1
2015-Feb-27 17:28N 51°25' E 002°38'0 0.1
2015-Feb-27 16:22N 51°25' E 002°37'0 0.0
2015-Feb-27 15:31N 51°25' E 002°37'0 0.0
2015-Feb-27 14:28N 51°25' E 002°37'0 0.0
2015-Feb-27 13:31N 51°25' E 002°37'0 0.0
2015-Feb-27 12:28N 51°25' E 002°38'0 0.0
2015-Feb-27 11:13N 51°25' E 002°38'0 0.0
2015-Feb-27 10:31N 51°25' E 002°38'0 0.0
2015-Feb-27 09:31N 51°25' E 002°38'0 0.0
2015-Feb-27 08:31N 51°25' E 002°38'0 0.0
2015-Feb-27 07:28N 51°25' E 002°38'0 0.0
2015-Feb-27 06:31N 51°25' E 002°38'0 0.0
2015-Feb-27 05:25N 51°25' E 002°38'0 0.0
2015-Feb-27 04:22N 51°25' E 002°38'0 0.0
2015-Feb-27 03:31N 51°25' E 002°38'0 0.0
2015-Feb-27 02:19N 51°25' E 002°38'0 0.0
2015-Feb-27 01:31N 51°25' E 002°37'0 0.0
2015-Feb-27 00:22N 51°25' E 002°38'0 0.0
2015-Feb-26 23:13N 51°25' E 002°38'0 0.0
2015-Feb-26 22:31N 51°25' E 002°38'0 0.1
2015-Feb-26 21:31N 51°25' E 002°38'0 0.1
2015-Feb-26 20:28N 51°25' E 002°38'0 0.0
2015-Feb-26 19:28N 51°25' E 002°38'0 0.0
2015-Feb-26 18:31N 51°25' E 002°38'0 0.0
2015-Feb-26 17:28N 51°25' E 002°38'0 0.1
2015-Feb-26 16:31N 51°25' E 002°38'0 0.0
2015-Feb-26 15:31N 51°25' E 002°38'0 0.2
2015-Feb-26 14:31N 51°25' E 002°37'0 0.0
2015-Feb-26 13:31N 51°25' E 002°37'0 0.1
2015-Feb-26 12:28N 51°25' E 002°37'0 0.0
2015-Feb-26 11:31N 51°25' E 002°37'0 0.0
2015-Feb-26 10:25N 51°25' E 002°38'0 0.0
2015-Feb-26 09:31N 51°25' E 002°38'0 0.0
2015-Feb-26 08:31N 51°25' E 002°38'0 0.0
2015-Feb-26 07:31N 51°25' E 002°38'0 0.0
2015-Feb-26 06:31N 51°25' E 002°38'0 0.0
2015-Feb-26 05:31N 51°25' E 002°38'0 0.0
2015-Feb-26 04:31N 51°25' E 002°38'0 0.1
2015-Feb-26 03:25N 51°25' E 002°37'0 0.1
2015-Feb-26 02:31N 51°25' E 002°37'0 0.0
2015-Feb-26 01:28N 51°25' E 002°37'0 0.0
2015-Feb-26 00:31N 51°25' E 002°37'0 0.1
2015-Feb-25 23:28N 51°25' E 002°37'0 0.1
2015-Feb-25 22:19N 51°25' E 002°37'0 0.1
2015-Feb-25 21:25N 51°25' E 002°38'0 0.0
2015-Feb-25 20:31N 51°25' E 002°38'0 0.0
2015-Feb-25 19:28N 51°25' E 002°38'0 0.0
2015-Feb-25 18:31N 51°25' E 002°38'0 0.0
2015-Feb-25 17:28N 51°25' E 002°38'0 0.0
2015-Feb-25 16:31N 51°25' E 002°38'2 1.5
2015-Feb-25 15:33N 51°24' E 002°36'7 6.7
2015-Feb-25 14:33N 51°21' E 002°27'5 5.5
2015-Feb-25 13:33N 51°18' E 002°19'5 4.9
2015-Feb-25 12:32N 51°16' E 002°12'5 4.9
2015-Feb-25 11:34N 51°13' E 002°06'6 6.1
2015-Feb-25 10:34N 51°11' E 001°57'9 8.6
2015-Feb-25 09:33N 51°06' E 001°45'9 9.3
2015-Feb-25 08:33N 51°00' E 001°34'  
Track history (hours):
 
Tides and Currents Weather Stations Pressure Air Temp Water Temp Dewpoint Dewpoint Depression Visibility Wind Speed Wind Dir Waves Ship Positions

Gandhi

Last reported at 2015-Mar-04 08:33 UTC. Time now 2015-Mar-04 08:37 UTC.
Position N 51°24' E 001°55'.

Length 180 m; draft 10.5 m.

Type: Ship. MMSI: 636013645.

Date/timePositionNaut miles runAvg speedWind from/ knotsBaromVisibWave heightAir tempDewpointWater temp
2015-Mar-04 08:33N 51°24' E 001°55'9 9.0
2015-Mar-04 07:32N 51°22' E 002°10'4445.1
2015-Mar-04 06:33N 51°25' E 003°21'2222.1
2015-Mar-04 05:34N 51°22' E 002°46'1211.8
2015-Mar-04 04:31N 51°24' E 003°05'1313.7
2015-Mar-04 03:33N 51°25' E 003°26'1010.2
2015-Mar-04 02:33N 51°25' E 003°42'9 9.3
2015-Mar-04 01:33N 51°24' E 003°57'7 6.6
2015-Mar-04 00:33N 51°22' E 004°07'6 6.3
2015-Mar-03 23:34N 51°21' E 004°17'0 0.1
2015-Mar-03 22:33N 51°21' E 004°17'2 1.9
2015-Mar-03 21:34N 51°19' E 004°19'3 2.8
2015-Mar-03 20:33N 51°16' E 004°21'0 0.0
2015-Mar-03 18:03N 51°16' E 004°21'0 0.0
2015-Mar-03 16:19N 51°16' E 004°21'0 0.0
2015-Mar-03 15:15N 51°16' E 004°21'0 0.0
2015-Mar-03 13:21N 51°16' E 004°21'0 0.0
2015-Mar-03 11:12N 51°16' E 004°21'0 0.0
2015-Mar-03 10:24N 51°16' E 004°21'0 0.0
2015-Mar-03 09:10N 51°16' E 004°21'0 0.0
2015-Mar-03 07:30N 51°16' E 004°21'0 0.0
2015-Mar-03 06:33N 51°16' E 004°21'0 0.0
2015-Mar-03 04:24N 51°16' E 004°21'0 0.0
2015-Mar-03 03:27N 51°16' E 004°21'0 0.0
2015-Mar-03 01:30N 51°16' E 004°21'0 0.0
2015-Mar-03 00:33N 51°16' E 004°21'0 0.0
2015-Mar-02 23:24N 51°16' E 004°21'0 0.0
2015-Mar-02 22:33N 51°16' E 004°21'0 0.0
2015-Mar-02 21:30N 51°16' E 004°21'0 0.0
2015-Mar-02 20:03N 51°16' E 004°21'0 0.0
2015-Mar-02 17:21N 51°16' E 004°21'0 0.0
2015-Mar-02 16:18N 51°16' E 004°21'0 0.0
2015-Mar-02 15:24N 51°16' E 004°21'0 0.0
2015-Mar-02 14:18N 51°16' E 004°21'0 0.0
2015-Mar-02 13:24N 51°16' E 004°21'0 0.0
2015-Mar-02 12:18N 51°16' E 004°21'0 0.0
2015-Mar-02 11:30N 51°16' E 004°21'0 0.0
2015-Mar-02 10:30N 51°16' E 004°21'0 0.0
2015-Mar-02 09:30N 51°16' E 004°21'0 0.0
2015-Mar-02 08:27N 51°16' E 004°21'0 0.0
2015-Mar-02 06:12N 51°16' E 004°21'0 0.0
2015-Mar-02 05:30N 51°16' E 004°21'0 0.0
2015-Mar-02 04:09N 51°16' E 004°21'0 0.0
2015-Mar-02 02:12N 51°16' E 004°21'0 0.0
2015-Mar-02 01:24N 51°16' E 004°21'0 0.0
2015-Mar-02 00:30N 51°16' E 004°21'0 0.0
2015-Mar-01 23:30N 51°16' E 004°21'0 0.0
2015-Mar-01 22:33N 51°16' E 004°21'0 0.0
2015-Mar-01 21:30N 51°16' E 004°21'0 0.0
2015-Mar-01 20:24N 51°16' E 004°21'0 0.0
2015-Mar-01 19:18N 51°16' E 004°21'0 0.0
2015-Mar-01 18:33N 51°16' E 004°21'0 0.0
2015-Mar-01 17:30N 51°16' E 004°21'0 0.0
2015-Mar-01 16:18N 51°16' E 004°21'0 0.0
2015-Mar-01 15:24N 51°16' E 004°21'0 0.0
2015-Mar-01 14:24N 51°16' E 004°21'0 0.0
2015-Mar-01 13:30N 51°16' E 004°21'0 0.0
2015-Mar-01 12:24N 51°16' E 004°21'0 0.0
2015-Mar-01 11:18N 51°16' E 004°21'0 0.0
2015-Mar-01 10:06N 51°16' E 004°21'0 0.0
2015-Mar-01 09:24N 51°16' E 004°21'0 0.0
2015-Mar-01 08:24N 51°16' E 004°21'0 0.0
2015-Mar-01 07:30N 51°16' E 004°21'0 0.0
2015-Mar-01 06:33N 51°16' E 004°21'2 2.1
2015-Mar-01 05:33N 51°18' E 004°19'3 2.8
2015-Mar-01 04:34N 51°21' E 004°17'2 2.2
2015-Mar-01 03:33N 51°21' E 004°14'8 7.8
2015-Mar-01 02:34N 51°24' E 004°02'8 7.9
2015-Mar-01 01:34N 51°21' E 003°51'10 9.8
2015-Mar-01 00:33N 51°26' E 003°38'8 7.9
2015-Feb-28 23:33N 51°25' E 003°25'12 9.8
2015-Feb-28 22:22N 51°24' E 003°07'911.4
2015-Feb-28 21:33N 51°22' E 002°52'9 9.3
2015-Feb-28 20:33N 51°25' E 002°38'1 0.6
2015-Feb-28 19:28N 51°25' E 002°38'0 0.0
2015-Feb-28 18:28N 51°25' E 002°38'0 0.1
2015-Feb-28 17:31N 51°25' E 002°37'0 0.0
2015-Feb-28 16:31N 51°25' E 002°38'0 0.0
2015-Feb-28 15:31N 51°25' E 002°38'0 0.0
2015-Feb-28 14:28N 51°25' E 002°38'0 0.0
2015-Feb-28 13:31N 51°25' E 002°38'0 0.0
2015-Feb-28 12:31N 51°25' E 002°38'0 0.0
2015-Feb-28 11:28N 51°25' E 002°38'0 0.0
2015-Feb-28 10:31N 51°25' E 002°38'0 0.0
2015-Feb-28 09:28N 51°25' E 002°38'0 0.0
2015-Feb-28 08:31N 51°25' E 002°38'0 0.0
2015-Feb-28 07:31N 51°25' E 002°38'0 0.0
2015-Feb-28 06:31N 51°25' E 002°38'0 0.0
2015-Feb-28 05:19N 51°25' E 002°38'0 0.1
2015-Feb-28 04:18N 51°25' E 002°37'0 0.0
2015-Feb-28 03:13N 51°25' E 002°37'0 0.0
2015-Feb-28 01:31N 51°25' E 002°38'0 0.0
2015-Feb-28 00:31N 51°25' E 002°38'0 0.0
2015-Feb-27 23:22N 51°25' E 002°38'0 0.0
2015-Feb-27 22:22N 51°25' E 002°38'0 0.0
2015-Feb-27 21:28N 51°25' E 002°38'0 0.0
2015-Feb-27 20:28N 51°25' E 002°38'0 0.0
2015-Feb-27 19:28N 51°25' E 002°38'0 0.1
2015-Feb-27 18:31N 51°25' E 002°38'0 0.1
2015-Feb-27 17:28N 51°25' E 002°38'0 0.1
2015-Feb-27 16:22N 51°25' E 002°37'0 0.0
2015-Feb-27 15:31N 51°25' E 002°37'0 0.0
2015-Feb-27 14:28N 51°25' E 002°37'0 0.0
2015-Feb-27 13:31N 51°25' E 002°37'0 0.0
2015-Feb-27 12:28N 51°25' E 002°38'0 0.0
2015-Feb-27 11:13N 51°25' E 002°38'0 0.0
2015-Feb-27 10:31N 51°25' E 002°38'0 0.0
2015-Feb-27 09:31N 51°25' E 002°38'0 0.0
2015-Feb-27 08:31N 51°25' E 002°38'0 0.0
2015-Feb-27 07:28N 51°25' E 002°38'0 0.0
2015-Feb-27 06:31N 51°25' E 002°38'0 0.0
2015-Feb-27 05:25N 51°25' E 002°38'0 0.0
2015-Feb-27 04:22N 51°25' E 002°38'0 0.0
2015-Feb-27 03:31N 51°25' E 002°38'0 0.0
2015-Feb-27 02:19N 51°25' E 002°38'0 0.0
2015-Feb-27 01:31N 51°25' E 002°37'0 0.0
2015-Feb-27 00:22N 51°25' E 002°38'0 0.0
2015-Feb-26 23:13N 51°25' E 002°38'0 0.0
2015-Feb-26 22:31N 51°25' E 002°38'0 0.1
2015-Feb-26 21:31N 51°25' E 002°38'0 0.1
2015-Feb-26 20:28N 51°25' E 002°38'0 0.0
2015-Feb-26 19:28N 51°25' E 002°38'0 0.0
2015-Feb-26 18:31N 51°25' E 002°38'0 0.0
2015-Feb-26 17:28N 51°25' E 002°38'0 0.1
2015-Feb-26 16:31N 51°25' E 002°38'0 0.0
2015-Feb-26 15:31N 51°25' E 002°38'0 0.2
2015-Feb-26 14:31N 51°25' E 002°37'0 0.0
2015-Feb-26 13:31N 51°25' E 002°37'0 0.1
2015-Feb-26 12:28N 51°25' E 002°37'0 0.0
2015-Feb-26 11:31N 51°25' E 002°37'0 0.0
2015-Feb-26 10:25N 51°25' E 002°38'0 0.0
2015-Feb-26 09:31N 51°25' E 002°38'0 0.0
2015-Feb-26 08:31N 51°25' E 002°38'0 0.0
2015-Feb-26 07:31N 51°25' E 002°38'0 0.0
2015-Feb-26 06:31N 51°25' E 002°38'0 0.0
2015-Feb-26 05:31N 51°25' E 002°38'0 0.0
2015-Feb-26 04:31N 51°25' E 002°38'0 0.1
2015-Feb-26 03:25N 51°25' E 002°37'0 0.1
2015-Feb-26 02:31N 51°25' E 002°37'0 0.0
2015-Feb-26 01:28N 51°25' E 002°37'0 0.0
2015-Feb-26 00:31N 51°25' E 002°37'0 0.1
2015-Feb-25 23:28N 51°25' E 002°37'0 0.1
2015-Feb-25 22:19N 51°25' E 002°37'0 0.1
2015-Feb-25 21:25N 51°25' E 002°38'0 0.0
2015-Feb-25 20:31N 51°25' E 002°38'0 0.0
2015-Feb-25 19:28N 51°25' E 002°38'0 0.0
2015-Feb-25 18:31N 51°25' E 002°38'0 0.0
2015-Feb-25 17:28N 51°25' E 002°38'0 0.0
2015-Feb-25 16:31N 51°25' E 002°38'2 1.5
2015-Feb-25 15:33N 51°24' E 002°36'7 6.7
2015-Feb-25 14:33N 51°21' E 002°27'5 5.5
2015-Feb-25 13:33N 51°18' E 002°19'5 4.9
2015-Feb-25 12:32N 51°16' E 002°12'5 4.9
2015-Feb-25 11:34N 51°13' E 002°06'6 6.1
2015-Feb-25 10:34N 51°11' E 001°57'9 8.6
2015-Feb-25 09:33N 51°06' E 001°45'9 9.3
2015-Feb-25 08:33N 51°00' E 001°34'  

Dump ship's entire track history